sensor_id;sensor_type;location;lat;lon;timestamp;pressure;altitude;pressure_sealevel;temperature;humidity
79780;BME280;69258;52.050;10.334;2023-05-10T00:06:33;98845.88;;;19.66;47.16
79780;BME280;69258;52.050;10.334;2023-05-10T00:21:35;98830.28;;;19.63;46.92
79780;BME280;69258;52.050;10.334;2023-05-10T00:36:37;98827.00;;;19.61;47.15
79780;BME280;69258;52.050;10.334;2023-05-10T00:51:39;98826.41;;;19.59;46.79
79780;BME280;69258;52.050;10.334;2023-05-10T01:06:41;98823.13;;;19.57;46.92
79780;BME280;69258;52.050;10.334;2023-05-10T01:37:06;98816.81;;;19.51;46.59
79780;BME280;69258;52.050;10.334;2023-05-10T01:52:12;98803.88;;;19.48;46.95
79780;BME280;69258;52.050;10.334;2023-05-10T02:07:15;98806.97;;;19.45;46.86
79780;BME280;69258;52.050;10.334;2023-05-10T02:22:18;98795.69;;;19.43;47.13
79780;BME280;69258;52.050;10.334;2023-05-10T02:37:21;98801.25;;;19.42;46.82
79780;BME280;69258;52.050;10.334;2023-05-10T02:52:29;98787.28;;;19.40;46.77
79780;BME280;69258;52.050;10.334;2023-05-10T03:07:32;98790.38;;;19.37;46.63
79780;BME280;69258;52.050;10.334;2023-05-10T03:22:38;98792.44;;;19.35;46.80
79780;BME280;69258;52.050;10.334;2023-05-10T03:37:41;98793.47;;;19.34;46.87
79780;BME280;69258;52.050;10.334;2023-05-10T03:52:42;98786.72;;;19.31;46.75
79780;BME280;69258;52.050;10.334;2023-05-10T04:07:44;98787.75;;;19.30;46.97
79780;BME280;69258;52.050;10.334;2023-05-10T04:22:46;98779.16;;;19.28;46.76
79780;BME280;69258;52.050;10.334;2023-05-10T04:37:48;98793.53;;;19.27;46.74
79780;BME280;69258;52.050;10.334;2023-05-10T04:52:49;98803.41;;;19.27;46.65
79780;BME280;69258;52.050;10.334;2023-05-10T05:07:53;98830.34;;;19.25;46.60
79780;BME280;69258;52.050;10.334;2023-05-10T05:22:55;98850.06;;;19.24;46.53
79780;BME280;69258;52.050;10.334;2023-05-10T05:37:56;98853.75;;;19.23;46.45
79780;BME280;69258;52.050;10.334;2023-05-10T05:52:58;98863.84;;;19.21;46.63
79780;BME280;69258;52.050;10.334;2023-05-10T06:08:00;98894.25;;;19.20;46.75
79780;BME280;69258;52.050;10.334;2023-05-10T06:23:02;98922.59;;;19.21;46.61
79780;BME280;69258;52.050;10.334;2023-05-10T06:38:03;98927.13;;;19.20;46.41
79780;BME280;69258;52.050;10.334;2023-05-10T06:53:05;98939.66;;;19.20;46.56
79780;BME280;69258;52.050;10.334;2023-05-10T07:08:07;98935.97;;;19.21;46.40
79780;BME280;69258;52.050;10.334;2023-05-10T07:23:08;98953.81;;;19.20;46.41
79780;BME280;69258;52.050;10.334;2023-05-10T07:38:10;98973.34;;;19.21;46.76
79780;BME280;69258;52.050;10.334;2023-05-10T07:53:12;98977.03;;;19.20;46.38
79780;BME280;69258;52.050;10.334;2023-05-10T08:08:13;98980.53;;;19.20;46.28
79780;BME280;69258;52.050;10.334;2023-05-10T08:23:15;99012.38;;;19.22;46.78
79780;BME280;69258;52.050;10.334;2023-05-10T08:38:18;99034.78;;;19.21;46.79
79780;BME280;69258;52.050;10.334;2023-05-10T08:53:20;99050.78;;;19.21;46.65
79780;BME280;69258;52.050;10.334;2023-05-10T09:08:23;99068.66;;;19.20;46.71
79780;BME280;69258;52.050;10.334;2023-05-10T09:23:25;99090.84;;;19.21;46.51
79780;BME280;69258;52.050;10.334;2023-05-10T09:38:27;99114.06;;;19.20;46.57
79780;BME280;69258;52.050;10.334;2023-05-10T09:53:29;99124.75;;;19.20;46.27
79780;BME280;69258;52.050;10.334;2023-05-10T10:08:31;99145.94;;;19.22;46.71
79780;BME280;69258;52.050;10.334;2023-05-10T10:23:33;99145.50;;;19.25;46.53
79780;BME280;69258;52.050;10.334;2023-05-10T10:38:37;99152.25;;;19.28;46.53
79780;BME280;69258;52.050;10.334;2023-05-10T10:53:40;99154.50;;;19.31;46.62
79780;BME280;69258;52.050;10.334;2023-05-10T11:08:42;99163.16;;;19.33;46.40
79780;BME280;69258;52.050;10.334;2023-05-10T11:23:50;99173.63;;;19.34;46.72
79780;BME280;69258;52.050;10.334;2023-05-10T11:38:52;99170.75;;;19.36;46.52
79780;BME280;69258;52.050;10.334;2023-05-10T11:53:55;99184.50;;;19.39;46.56
79780;BME280;69258;52.050;10.334;2023-05-10T12:08:58;99192.13;;;19.42;46.59
79780;BME280;69258;52.050;10.334;2023-05-10T12:24:02;99179.81;;;19.48;46.44
79780;BME280;69258;52.050;10.334;2023-05-10T12:39:04;99201.38;;;19.59;46.28
79780;BME280;69258;52.050;10.334;2023-05-10T12:54:06;99203.81;;;19.61;46.69
79780;BME280;69258;52.050;10.334;2023-05-10T13:09:08;99219.22;;;19.65;46.49
79780;BME280;69258;52.050;10.334;2023-05-10T13:24:10;99228.50;;;19.63;46.52
79780;BME280;69258;52.050;10.334;2023-05-10T13:39:12;99228.09;;;19.59;46.94
79780;BME280;69258;52.050;10.334;2023-05-10T13:54:14;99232.59;;;19.59;46.96
79780;BME280;69258;52.050;10.334;2023-05-10T14:09:16;99228.69;;;19.61;46.73
79780;BME280;69258;52.050;10.334;2023-05-10T14:24:17;99219.66;;;19.62;46.96
79780;BME280;69258;52.050;10.334;2023-05-10T14:39:19;99204.84;;;19.66;46.73
79780;BME280;69258;52.050;10.334;2023-05-10T14:54:21;99209.75;;;19.69;46.80
79780;BME280;69258;52.050;10.334;2023-05-10T15:09:23;99216.53;;;19.72;46.77
79780;BME280;69258;52.050;10.334;2023-05-10T15:24:25;99233.19;;;19.74;47.15
79780;BME280;69258;52.050;10.334;2023-05-10T15:39:26;99231.34;;;19.75;46.91
79780;BME280;69258;52.050;10.334;2023-05-10T15:54:28;99231.94;;;19.77;46.98
79780;BME280;69258;52.050;10.334;2023-05-10T16:09:30;99247.97;;;19.77;47.13
79780;BME280;69258;52.050;10.334;2023-05-10T16:24:32;99262.38;;;19.76;47.27
79780;BME280;69258;52.050;10.334;2023-05-10T16:39:33;99281.31;;;19.74;47.55
79780;BME280;69258;52.050;10.334;2023-05-10T16:54:44;99286.84;;;19.73;47.16
79780;BME280;69258;52.050;10.334;2023-05-10T17:09:46;99299.63;;;19.70;47.36
79780;BME280;69258;52.050;10.334;2023-05-10T17:24:48;99310.50;;;19.69;47.58
79780;BME280;69258;52.050;10.334;2023-05-10T17:39:49;99322.22;;;19.68;48.09
79780;BME280;69258;52.050;10.334;2023-05-10T17:54:51;99333.97;;;19.67;47.87
79780;BME280;69258;52.050;10.334;2023-05-10T18:09:53;99345.03;;;19.64;47.88
79780;BME280;69258;52.050;10.334;2023-05-10T18:24:55;99355.31;;;19.60;47.95
79780;BME280;69258;52.050;10.334;2023-05-10T18:39:56;99373.41;;;19.58;47.80
79780;BME280;69258;52.050;10.334;2023-05-10T18:54:58;99380.00;;;19.56;47.65
79780;BME280;69258;52.050;10.334;2023-05-10T19:10:00;99394.59;;;19.53;47.78
79780;BME280;69258;52.050;10.334;2023-05-10T19:25:01;99415.97;;;19.53;47.63
79780;BME280;69258;52.050;10.334;2023-05-10T19:40:04;99410.00;;;19.51;47.99
79780;BME280;69258;52.050;10.334;2023-05-10T19:55:06;99407.34;;;19.51;47.92
79780;BME280;69258;52.050;10.334;2023-05-10T20:10:08;99404.25;;;19.48;47.99
79780;BME280;69258;52.050;10.334;2023-05-10T20:25:10;99419.47;;;19.47;47.96
79780;BME280;69258;52.050;10.334;2023-05-10T20:40:12;99421.50;;;19.45;48.08
79780;BME280;69258;52.050;10.334;2023-05-10T20:55:14;99427.06;;;19.44;47.38
79780;BME280;69258;52.050;10.334;2023-05-10T21:10:15;99423.75;;;19.42;47.49
79780;BME280;69258;52.050;10.334;2023-05-10T21:25:17;99429.09;;;19.42;47.89
79780;BME280;69258;52.050;10.334;2023-05-10T21:40:19;99424.13;;;19.39;47.92
79780;BME280;69258;52.050;10.334;2023-05-10T21:55:21;99432.16;;;19.39;47.68
79780;BME280;69258;52.050;10.334;2023-05-10T22:10:23;99431.53;;;19.37;47.71
79780;BME280;69258;52.050;10.334;2023-05-10T22:25:25;99431.53;;;19.37;48.03
79780;BME280;69258;52.050;10.334;2023-05-10T22:40:26;99431.13;;;19.33;48.01
79780;BME280;69258;52.050;10.334;2023-05-10T22:55:29;99447.94;;;19.34;47.68
79780;BME280;69258;52.050;10.334;2023-05-10T23:10:30;99443.66;;;19.33;47.89
79780;BME280;69258;52.050;10.334;2023-05-10T23:25:32;99453.09;;;19.29;47.65
79780;BME280;69258;52.050;10.334;2023-05-10T23:40:35;99451.44;;;19.28;47.79
79780;BME280;69258;52.050;10.334;2023-05-10T23:55:37;99454.94;;;19.28;47.81
